Data for 01/28/2010

Time Sea-Level Adjusted Pressure Absolute Pressure Temperature Relative Humidity Dew Point   
(mb) (inHg) (mb) (inHg) (C) (F) (%) (C) (F)
00:05 1024 30.24 853 25.19 -10.3 13.5 92 -11.3 11.6
00:10 1024 30.24 853 25.19 -11.2 11.9 93 -12.1 10.2
00:15 1023 30.21 853 25.19 -11.4 11.5 91 -12.6 9.2
00:20 1023 30.21 852 25.16 -11.8 10.7 95 -12.4 9.7
00:25 1023 30.21 853 25.19 -11.4 11.6 95 -12.1 10.3
00:30 1023 30.21 852 25.16 -11.3 11.7 94 -12.1 10.2
00:35 1023 30.21 852 25.16 -11.4 11.5 92 -12.5 9.5
00:40 1023 30.21 852 25.16 -11.4 11.4 93 -12.4 9.7
00:45 1023 30.21 852 25.16 -11.2 11.9 93 -12.1 10.1
00:50 1023 30.21 852 25.16 -11 12.3 93 -11.9 10.6
00:55 1023 30.21 852 25.16 -10.7 12.8 92 -11.7 11
01:00 1023 30.21 852 25.16 -10.3 13.4 92 -11.4 11.5
01:05 1023 30.21 853 25.19 -10.1 13.8 91 -11.3 11.7
01:10 1023 30.21 852 25.16 -10.2 13.7 91 -11.4 11.5
01:15 1023 30.21 853 25.19 -10.3 13.5 91 -11.5 11.4
01:20 1023 30.21 853 25.19 -10.2 13.6 91 -11.4 11.5
01:25 1023 30.21 853 25.19 -10.1 13.7 91 -11.4 11.5
01:30 1023 30.21 852 25.16 -10 14 91 -11.2 11.9
01:35 1023 30.21 853 25.19 -9.8 14.4 91 -11.1 12.1
01:40 1023 30.21 853 25.19 -9.8 14.5 90 -11 12.1
01:45 1023 30.21 853 25.19 -9.7 14.6 90 -11 12.1
01:50 1023 30.21 853 25.19 -9.6 14.6 90 -11 12.3
01:55 1023 30.21 852 25.16 -9.5 14.9 89 -11 12.2
02:00 1023 30.21 852 25.16 -9.5 15 89 -11 12.2
02:05 1023 30.21 852 25.16 -9.5 14.9 89 -11.1 12.1
02:10 1023 30.21 852 25.16 -9.6 14.8 88 -11.2 11.9
02:15 1023 30.21 852 25.16 -9.6 14.8 89 -11.1 12
02:20 1023 30.21 852 25.16 -9.5 14.9 88 -11.1 12
02:25 1023 30.21 852 25.16 -9.4 15 88 -11.1 12
02:30 1023 30.21 852 25.16 -9.3 15.3 87 -11 12.1
02:35 1023 30.21 852 25.16 -8.9 15.9 87 -10.8 12.6
02:40 1023 30.21 852 25.16 -8.7 16.4 86 -10.7 12.8
02:45 1023 30.21 852 25.16 -8.9 15.9 87 -10.8 12.6
02:50 1023 30.21 853 25.19 -9 15.8 87 -10.8 12.5
02:55 1024 30.24 853 25.19 -9.2 15.5 87 -11 12.3
03:00 1024 30.24 853 25.19 -9.4 15 87 -11.2 11.9
03:05 1023 30.21 853 25.19 -9.8 14.4 88 -11.4 11.4
03:10 1023 30.21 853 25.19 -10.2 13.7 89 -11.6 11.1
03:15 1023 30.21 852 25.16 -10.2 13.7 89 -11.7 11
03:20 1023 30.21 852 25.16 -10.2 13.6 89 -11.7 10.9
03:25 1023 30.21 852 25.16 -10.3 13.5 89 -11.8 10.8
03:30 1023 30.21 852 25.16 -10.1 13.8 90 -11.4 11.5
03:35 1023 30.21 853 25.19 -10.2 13.7 91 -11.3 11.6
03:40 1023 30.21 853 25.19 -10.4 13.3 91 -11.5 11.2
03:45 1023 30.21 853 25.19 -10.7 12.8 91 -11.9 10.6
03:50 1023 30.21 852 25.16 -10.9 12.3 90 -12.3 9.9
03:55 1023 30.21 852 25.16 -11.3 11.7 91 -12.4 9.6
04:00 1023 30.21 852 25.16 -11.5 11.4 93 -12.4 9.6
04:05 1023 30.21 852 25.16 -11.3 11.6 94 -12.2 10.1
04:10 1023 30.21 852 25.16 -11.3 11.7 94 -12.1 10.2
04:15 1023 30.21 852 25.16 -11.2 11.9 94 -11.9 10.6
04:20 1023 30.21 852 25.16 -11.1 12.1 94 -11.8 10.7
04:25 1023 30.21 852 25.16 -11.1 12.1 93 -12 10.4
04:30 1023 30.21 852 25.16 -11.2 11.9 92 -12.2 10
04:35 1023 30.21 852 25.16 -11.3 11.6 90 -12.7 9.1
04:40 1023 30.21 852 25.16 -11.7 10.9 90 -13.1 8.4
04:45 1023 30.21 852 25.16 -11.8 10.7 90 -13.2 8.3
04:50 1023 30.21 852 25.16 -11.9 10.5 93 -12.8 9
04:55 1023 30.21 852 25.16 -11.6 11.1 92 -12.6 9.3
05:00 1023 30.21 852 25.16 -11.8 10.8 92 -12.9 8.8
05:05 1023 30.21 852 25.16 -11.8 10.7 93 -12.7 9.1
05:10 1023 30.21 852 25.16 -12.2 10 92 -13.3 8.1
05:15 1023 30.21 852 25.16 -12.5 9.6 95 -13.1 8.4
05:20 1023 30.21 852 25.16 -12.3 9.9 95 -12.9 8.8
05:25 1023 30.21 852 25.16 -11.7 11 97 -12.1 10.3
05:30 1023 30.21 852 25.16 -11.3 11.6 95 -12 10.4
05:35 1023 30.21 852 25.16 -11.4 11.6 95 -12 10.4
05:40 1023 30.21 852 25.16 -11.1 12.1 95 -11.8 10.8
05:45 1024 30.24 853 25.19 -11 12.2 93 -11.9 10.5
05:50 1024 30.24 853 25.19 -11.2 11.8 90 -12.5 9.5
05:55 1024 30.24 853 25.19 -11.9 10.7 92 -12.9 8.7
06:00 1024 30.24 853 25.19 -12.1 10.2 89 -13.6 7.5
06:05 1024 30.24 853 25.19 -13.1 8.4 90 -14.5 6
06:10 1024 30.24 853 25.19 -13.5 7.7 94 -14.3 6.2
06:15 1024 30.24 853 25.19 -13.1 8.4 94 -13.9 7
06:20 1024 30.24 853 25.19 -12.7 9.1 94 -13.4 7.8
06:25 1024 30.24 853 25.19 -13 8.6 91 -14.2 6.5
06:30 1024 30.24 853 25.19 -13.2 8.2 92 -14.3 6.2
06:35 1024 30.24 853 25.19 -13.1 8.5 92 -14.1 6.7
06:40 1024 30.24 853 25.19 -12.9 8.7 96 -13.5 7.7
06:45 1024 30.24 853 25.19 -12.2 10 93 -13.1 8.3
06:50 1024 30.24 853 25.19 -12.3 9.8 93 -13.2 8.2
06:55 1024 30.24 853 25.19 -12.1 10.1 93 -13.1 8.4
07:00 1024 30.24 853 25.19 -12.1 10.2 92 -13.2 8.2
07:05 1024 30.24 853 25.19 -12.2 10 92 -13.3 8.1
07:10 1024 30.24 853 25.19 -12.5 9.5 92 -13.6 7.5
07:15 1024 30.24 853 25.19 -12.8 8.9 92 -13.9 7
07:20 1024 30.24 853 25.19 -12.7 9.2 95 -13.3 8
07:25 1023 30.21 853 25.19 -12.1 10.2 93 -13.1 8.5
07:30 1023 30.21 853 25.19 -12.1 10.3 92 -13.1 8.5
07:35 1023 30.21 853 25.19 -12 10.4 93 -12.9 8.8
07:40 1023 30.21 852 25.16 -11.6 11.1 92 -12.7 9.1
07:45 1023 30.21 852 25.16 -11.6 11.2 93 -12.5 9.4
07:50 1023 30.21 852 25.16 -11.4 11.6 93 -12.3 9.9
07:55 1023 30.21 852 25.16 -11.3 11.7 92 -12.4 9.8
08:00 1023 30.21 852 25.16 -11.4 11.5 92 -12.4 9.7
08:05 1023 30.21 852 25.16 -11.4 11.6 92 -12.4 9.7
08:10 1023 30.21 852 25.16 -11.4 11.5 92 -12.5 9.5
08:15 1023 30.21 852 25.16 -11.3 11.6 92 -12.3 9.8
08:20 1023 30.21 852 25.16 -11 12.2 93 -12 10.4
08:25 1023 30.21 852 25.16 -10.5 13.1 92 -11.6 11.1
08:30 1023 30.21 852 25.16 -10.2 13.7 91 -11.4 11.5
08:35 1023 30.21 852 25.16 -9.9 14.1 90 -11.2 11.8
08:40 1023 30.21 852 25.16 -9.4 15.1 90 -10.8 12.6
08:45 1023 30.21 852 25.16 -9.1 15.6 91 -10.4 13.4
08:50 1023 30.21 852 25.16 -8.7 16.3 89 -10.2 13.6
08:55 1023 30.21 852 25.16 -8.4 16.8 89 -10 14
09:00 1023 30.21 852 25.16 -8.1 17.5 88 -9.8 14.4
09:05 1023 30.21 852 25.16 -8.2 17.3 87 -9.9 14.1
09:10 1023 30.21 852 25.16 -8.3 17.1 87 -10 13.9
09:15 1023 30.21 852 25.16 -8.3 17 87 -10.1 13.8
09:20 1023 30.21 852 25.16 -8.3 17.1 87 -10.1 13.8
09:25 1023 30.21 852 25.16 -8.2 17.2 88 -9.9 14.1
09:30 1023 30.21 852 25.16 -7.8 18 84 -10 14.1
09:35 1023 30.21 852 25.16 -7.6 18.2 84 -10 14.1
09:40 1023 30.21 852 25.16 -7.3 19 82 -9.8 14.4
09:45 1023 30.21 852 25.16 -7.3 18.8 76 -10.9 12.5
09:50 1023 30.21 852 25.16 -8.8 16.2 82 -11.4 11.6
09:55 1023 30.21 852 25.16 -9.1 15.6 83 -11.5 11.3
10:00 1023 30.21 852 25.16 -9.1 15.6 83 -11.5 11.4
10:05 1023 30.21 852 25.16 -9.1 15.5 85 -11.2 11.8
10:10 1023 30.21 852 25.16 -8.9 16 86 -10.9 12.5
10:15 1023 30.21 852 25.16 -8.8 16.2 84 -10.9 12.3
10:20 1023 30.21 852 25.16 -8.6 16.5 77 -12 10.4
10:25 1023 30.21 853 25.19 -9.2 15.4 86 -11.2 11.8
10:30 1023 30.21 853 25.19 -9.2 15.4 82 -11.8 10.8
10:35 1023 30.21 853 25.19 -9 15.8 78 -12.2 10.1
10:40 1023 30.21 853 25.19 -8.8 16.1 71 -13.2 8.3
10:45 1024 30.24 853 25.19 -10.2 13.6 78 -13.4 7.8
10:50 1024 30.24 853 25.19 -11 12.2 84 -13.2 8.3
10:55 1024 30.24 853 25.19 -11.1 12 87 -12.9 8.8
11:00 1023 30.21 853 25.19 -10.7 12.7 90 -12 10.3
11:05 1023 30.21 853 25.19 -10.1 13.9 88 -11.7 10.9
11:10 1023 30.21 853 25.19 -9.9 14.3 87 -11.6 11.1
11:15 1023 30.21 853 25.19 -9.9 14.2 90 -11.2 11.8
11:20 1023 30.21 853 25.19 -9 15.7 88 -10.7 12.7
11:25 1023 30.21 853 25.19 -8.1 17.4 83 -10.4 13.2
11:30 1023 30.21 853 25.19 -7.5 18.6 79 -10.4 13.2
11:35 1023 30.21 852 25.16 -7.2 19 78 -10.3 13.4
11:40 1023 30.21 852 25.16 -6.9 19.6 76 -10.4 13.3
11:45 1023 30.21 852 25.16 -7.3 18.8 79 -10.4 13.2
11:50 1023 30.21 852 25.16 -7.5 18.6 78 -10.7 12.8
11:55 1023 30.21 852 25.16 -7.6 18.4 78 -10.8 12.6
12:00 1023 30.21 852 25.16 -7.2 19.1 76 -10.8 12.6
12:05 1023 30.21 852 25.16 -6.6 20 76 -10.2 13.6
12:10 1023 30.21 852 25.16 -5.5 22.1 72 -9.9 14.3
12:15 1023 30.21 852 25.16 -4.9 23.2 71 -9.4 15
12:20 1023 30.21 852 25.16 -5 22.9 68 -10 13.9
12:25 1023 30.21 852 25.16 -5 23 70 -9.7 14.6
12:30 1023 30.21 852 25.16 -4.5 23.9 68 -9.5 14.8
12:35 1022 30.18 852 25.16 -3.6 25.6 63 -9.5 14.8
12:40 1022 30.18 852 25.16 -2.7 27.1 59 -9.6 14.7
12:45 1022 30.18 851 25.13 -4 24.7 64 -9.8 14.4
12:50 1022 30.18 852 25.16 -4.3 24.3 67 -9.6 14.7
12:55 1022 30.18 852 25.16 -4.4 24 68 -9.4 15
13:00 1022 30.18 852 25.16 -4.7 23.5 70 -9.5 15
13:05 1022 30.18 851 25.13 -4.4 24.1 67 -9.6 14.7
13:10 1022 30.18 851 25.13 -3.9 24.9 67 -9.2 15.4
13:15 1022 30.18 851 25.13 -3.8 25.1 65 -9.4 15.1
13:20 1022 30.18 851 25.13 -3.5 25.7 66 -9 15.8
13:25 1022 30.18 851 25.13 -3.5 25.8 65 -9.1 15.6
13:30 1022 30.18 851 25.13 -3.5 25.8 67 -8.8 16.2
13:35 1022 30.18 851 25.13 -3.9 25 69 -8.8 16.1
13:40 1022 30.18 851 25.13 -4.5 24 70 -9.2 15.5
13:45 1022 30.18 851 25.13 -4.2 24.4 69 -9 15.8
13:50 1022 30.18 851 25.13 -4.4 24.1 69 -9.2 15.4
13:55 1022 30.18 851 25.13 -4.4 24.1 69 -9.2 15.4
14:00 1022 30.18 851 25.13 -3.9 25 67 -9.1 15.6
14:05 1022 30.18 851 25.13 -4.4 24.1 72 -8.7 16.4
14:10 1022 30.18 851 25.13 -4.7 23.6 69 -9.5 14.9
14:15 1022 30.18 851 25.13 -4.6 23.8 70 -9.3 15.3
14:20 1022 30.18 851 25.13 -5.1 22.9 71 -9.5 14.9
14:25 1022 30.18 851 25.13 -4.5 23.9 69 -9.4 15
14:30 1022 30.18 851 25.13 -4.2 24.5 69 -9.1 15.6
14:35 1022 30.18 851 25.13 -4.2 24.5 67 -9.3 15.2
14:40 1022 30.18 851 25.13 -4 24.7 67 -9.3 15.2
14:45 1022 30.18 851 25.13 -4 24.8 64 -9.8 14.4
14:50 1022 30.18 851 25.13 -3.5 25.7 64 -9.3 15.3
14:55 1022 30.18 851 25.13 -2.9 26.9 60 -9.5 14.9
15:00 1022 30.18 851 25.13 -2.8 27 61 -9.2 15.4
15:05 1022 30.18 851 25.13 -2.5 27.5 58 -9.6 14.8
15:10 1022 30.18 851 25.13 -2.3 27.8 59 -9.2 15.4
15:15 1022 30.18 851 25.13 -2.5 27.5 59 -9.4 15.1
15:20 1022 30.18 851 25.13 -2.9 26.7 62 -9.1 15.6
15:25 1022 30.18 851 25.13 -3 26.5 62 -9.3 15.2
15:30 1022 30.18 851 25.13 -3.3 26.1 67 -8.6 16.5
15:35 1022 30.18 851 25.13 -3.6 25.6 66 -9.1 15.6
15:40 1022 30.18 851 25.13 -3.7 25.3 65 -9.5 15
15:45 1022 30.18 851 25.13 -3.6 25.5 65 -9.3 15.2
15:50 1022 30.18 851 25.13 -3.3 26.1 63 -9.4 15.1
15:55 1022 30.18 851 25.13 -3.2 26.3 63 -9.3 15.3
16:00 1022 30.18 851 25.13 -3.4 26 64 -9.2 15.5
16:05 1022 30.18 851 25.13 -3.4 25.9 64 -9.3 15.3
16:10 1022 30.18 851 25.13 -3.4 25.9 64 -9.3 15.2
16:15 1022 30.18 851 25.13 -3.6 25.5 64 -9.5 14.9
16:20 1022 30.18 851 25.13 -3.4 25.9 63 -9.4 15
16:25 1022 30.18 851 25.13 -3.5 25.6 64 -9.4 15.1
16:30 1022 30.18 851 25.13 -3.9 24.9 65 -9.5 14.8
16:35 1022 30.18 851 25.13 -4.3 24.3 67 -9.6 14.8
16:40 1022 30.18 851 25.13 -4.6 23.7 67 -9.8 14.4
16:45 1022 30.18 851 25.13 -4.6 23.7 67 -9.9 14.3
16:50 1022 30.18 851 25.13 -4.7 23.6 69 -9.6 14.8
16:55 1022 30.18 851 25.13 -5.1 22.8 71 -9.6 14.8
17:00 1021 30.15 851 25.13 -5.2 22.6 71 -9.7 14.6
17:05 1021 30.15 851 25.13 -5.5 22.1 74 -9.5 15
17:10 1021 30.15 850 25.1 -5.5 22 72 -9.7 14.5
17:15 1021 30.15 850 25.1 -5.6 21.9 74 -9.6 14.7
17:20 1021 30.15 850 25.1 -5.6 22 74 -9.6 14.8
17:25 1021 30.15 850 25.1 -5.6 21.9 74 -9.6 14.8
17:30 1021 30.15 850 25.1 -5.5 22 74 -9.5 14.8
17:35 1021 30.15 851 25.13 -5.7 21.7 75 -9.5 14.9
17:40 1021 30.15 851 25.13 -6 21.2 76 -9.6 14.8
17:45 1021 30.15 851 25.13 -6.1 21 76 -9.6 14.7
17:50 1021 30.15 851 25.13 -6.2 20.9 78 -9.5 14.9
17:55 1021 30.15 851 25.13 -6.5 20.3 79 -9.6 14.8
18:00 1021 30.15 850 25.1 -6.9 19.6 78 -10.1 13.8
18:05 1021 30.15 851 25.13 -7.5 18.6 81 -10.2 13.6
18:10 1021 30.15 850 25.1 -7.7 18.2 83 -10.1 13.7
18:15 1021 30.15 850 25.1 -7.7 18.2 84 -9.9 14.2
18:20 1021 30.15 850 25.1 -7.5 18.5 84 -9.8 14.3
18:25 1021 30.15 850 25.1 -7.3 18.9 83 -9.8 14.4
18:30 1021 30.15 850 25.1 -7.2 19.1 83 -9.6 14.7
18:35 1021 30.15 850 25.1 -6.9 19.6 81 -9.6 14.8
18:40 1021 30.15 851 25.13 -6.8 19.7 81 -9.6 14.8
18:45 1021 30.15 850 25.1 -6.9 19.6 81 -9.5 14.8
18:50 1021 30.15 851 25.13 -6.9 19.5 81 -9.6 14.7
18:55 1021 30.15 851 25.13 -7 19.4 83 -9.4 15
19:00 1021 30.15 851 25.13 -7.1 19.3 83 -9.5 14.9
19:05 1021 30.15 850 25.1 -7.1 19.3 83 -9.5 15
19:10 1021 30.15 850 25.1 -7 19.4 83 -9.5 15
19:15 1021 30.15 851 25.13 -7 19.4 83 -9.5 15
19:20 1021 30.15 850 25.1 -7 19.4 83 -9.4 15
19:25 1021 30.15 850 25.1 -7 19.4 83 -9.5 15
19:30 1021 30.15 850 25.1 -7.2 19.1 84 -9.5 14.9
19:35 1021 30.15 850 25.1 -7.3 18.9 84 -9.5 14.9
19:40 1021 30.15 850 25.1 -7.2 19.1 84 -9.4 15.1
19:45 1021 30.15 850 25.1 -7 19.4 83 -9.4 15
19:50 1021 30.15 850 25.1 -7 19.4 82 -9.5 14.9
19:55 1021 30.15 850 25.1 -7.1 19.3 83 -9.5 14.9
20:00 1021 30.15 850 25.1 -7.1 19.3 83 -9.4 15
20:05 1021 30.15 850 25.1 -7 19.4 83 -9.4 15.1
20:10 1021 30.15 850 25.1 -7 19.4 83 -9.5 15
20:15 1021 30.15 850 25.1 -7.1 19.3 83 -9.5 14.9
20:20 1021 30.15 850 25.1 -7.2 19.1 84 -9.5 14.9
20:25 1021 30.15 850 25.1 -7.3 18.8 84 -9.6 14.7
20:30 1021 30.15 850 25.1 -7.5 18.5 85 -9.6 14.8
20:35 1021 30.15 850 25.1 -7.4 18.7 85 -9.5 14.9
20:40 1021 30.15 850 25.1 -7.6 18.4 84 -9.8 14.3
20:45 1021 30.15 850 25.1 -8.3 17.1 87 -10.1 13.8
20:50 1021 30.15 850 25.1 -8.7 16.4 89 -10.2 13.7
20:55 1021 30.15 850 25.1 -8.6 16.6 89 -10 14
21:00 1021 30.15 850 25.1 -8.3 17.1 89 -9.7 14.5
21:05 1021 30.15 850 25.1 -8.2 17.3 89 -9.7 14.5
21:10 1021 30.15 850 25.1 -8.4 16.9 88 -10 14.1
21:15 1021 30.15 850 25.1 -8.6 16.5 89 -10.1 13.9
21:20 1020 30.12 850 25.1 -8.3 17 89 -9.8 14.4
21:25 1020 30.12 850 25.1 -7.8 17.9 87 -9.6 14.7
21:30 1020 30.12 850 25.1 -7.8 18 87 -9.6 14.7
21:35 1020 30.12 850 25.1 -7.9 17.8 88 -9.6 14.7
21:40 1020 30.12 850 25.1 -7.7 18.1 87 -9.6 14.7
21:45 1020 30.12 850 25.1 -7.6 18.3 85 -9.6 14.7
21:50 1020 30.12 850 25.1 -7.7 18.1 85 -9.7 14.5
21:55 1020 30.12 850 25.1 -7.8 18 85 -9.9 14.3
22:00 1020 30.12 850 25.1 -7.7 18.1 86 -9.6 14.7
22:05 1021 30.15 850 25.1 -7.9 17.8 87 -9.7 14.5
22:10 1021 30.15 850 25.1 -8.1 17.4 87 -9.9 14.2
22:15 1021 30.15 850 25.1 -8.3 17.1 88 -10 14.1
22:20 1021 30.15 850 25.1 -8.5 16.7 89 -10 14
22:25 1021 30.15 850 25.1 -8.4 16.8 89 -10 14.1
22:30 1021 30.15 850 25.1 -8.4 16.9 89 -9.8 14.3
22:35 1021 30.15 850 25.1 -8.2 17.3 89 -9.6 14.7
22:40 1021 30.15 850 25.1 -7.8 17.9 88 -9.5 15
22:45 1021 30.15 850 25.1 -7.7 18.2 89 -9.2 15.5
22:50 1021 30.15 850 25.1 -7.2 19 88 -8.9 16
22:55 1021 30.15 850 25.1 -7.1 19.3 88 -8.8 16.2
23:00 1021 30.15 850 25.1 -6.9 19.6 87 -8.7 16.4
23:05 1021 30.15 850 25.1 -6.9 19.5 87 -8.8 16.2
23:10 1021 30.15 850 25.1 -7 19.4 84 -9.2 15.5
23:15 1021 30.15 850 25.1 -7.6 18.3 83 -10 13.9
23:20 1021 30.15 850 25.1 -8.5 16.8 89 -9.9 14.1
23:25 1021 30.15 850 25.1 -8.5 16.8 89 -10 14.1
23:30 1021 30.15 850 25.1 -8.5 16.7 91 -9.8 14.4
23:35 1021 30.15 850 25.1 -8.1 17.5 88 -9.6 14.6
23:40 1021 30.15 850 25.1 -7.8 18 88 -9.5 14.9
23:45 1021 30.15 850 25.1 -7.9 17.9 86 -9.7 14.5
23:50 1021 30.15 850 25.1 -8.2 17.3 88 -9.8 14.3
23:55 1021 30.15 850 25.1 -8.2 17.3 88 -9.9 14.2
24:00 1021 30.15 850 25.1 -8.4 17 88 -10 14